Time;durP1;ratioP1;P1;durP2;ratioP2;P2;SDS_P1;SDS_P2;PMS_P1;PMS_P2;Temp;Humidity;BMP_temperature;BMP_pressure;BME280_temperature;BME280_humidity;BME280_pressure;Samples;Min_cycle;Max_cycle;Signal;HPM_P1;HPM_P2
2021/06/15 00:00:24;;;;;;;11.53;7.97;;;;;;;13.56;94.08;98293.84;5082925;28;20202;-70
2021/06/15 00:02:53;;;;;;;7.97;7.17;;;;;;;13.66;93.47;98290.97;5082009;28;20209;-71
2021/06/15 00:05:22;;;;;;;7.23;6.63;;;;;;;13.58;94.13;98294.50;5081940;28;20256;-72
2021/06/15 00:07:50;;;;;;;8.43;7.63;;;;;;;13.47;94.49;98302.91;5085758;28;20597;-71
2021/06/15 00:10:20;;;;;;;7.43;6.93;;;;;;;13.54;94.44;98295.88;5077749;28;20213;-71
2021/06/15 00:12:48;;;;;;;7.77;7.17;;;;;;;13.60;93.97;98296.97;5079095;28;20654;-70
2021/06/15 00:15:17;;;;;;;7.70;7.20;;;;;;;13.58;93.32;98291.00;5081428;28;20447;-72
2021/06/15 00:17:46;;;;;;;7.73;7.23;;;;;;;13.29;95.82;98290.63;5081483;28;20245;-71
2021/06/15 00:20:15;;;;;;;7.23;6.53;;;;;;;13.37;96.46;98294.25;5079259;28;20214;-71
2021/06/15 00:22:45;;;;;;;7.80;7.20;;;;;;;13.36;95.68;98295.25;5081411;28;20294;-71
2021/06/15 00:25:15;;;;;;;8.37;7.67;;;;;;;13.37;95.87;98289.78;5084729;28;20574;-69
2021/06/15 00:27:43;;;;;;;8.30;7.50;;;;;;;13.48;94.80;98282.41;5076086;28;20222;-71
2021/06/15 00:30:13;;;;;;;7.47;6.90;;;;;;;13.26;96.83;98285.66;5081130;28;20203;-70
2021/06/15 00:32:41;;;;;;;7.63;6.93;;;;;;;13.26;95.64;98277.69;5077430;28;20226;-71
2021/06/15 00:35:10;;;;;;;7.80;7.20;;;;;;;13.20;95.83;98281.03;5081496;28;20822;-72
2021/06/15 00:37:38;;;;;;;8.80;7.87;;;;;;;13.05;97.28;98275.63;5078140;28;20765;-71
2021/06/15 00:40:08;;;;;;;7.63;7.00;;;;;;;13.15;97.08;98272.75;5077536;28;20203;-71
2021/06/15 00:42:36;;;;;;;8.10;7.20;;;;;;;13.09;95.96;98274.25;5084857;28;20590;-71
2021/06/15 00:45:07;;;;;;;7.73;7.03;;;;;;;13.10;96.06;98281.25;5087209;28;20213;-71
2021/06/15 00:47:35;;;;;;;8.50;7.77;;;;;;;13.01;97.15;98282.28;5085815;28;20225;-69
2021/06/15 00:50:05;;;;;;;8.17;7.27;;;;;;;13.07;96.53;98286.06;5077904;28;20207;-71
2021/06/15 00:52:33;;;;;;;8.13;7.30;;;;;;;12.99;97.07;98284.28;5080468;28;20599;-71
2021/06/15 00:55:01;;;;;;;8.30;7.60;;;;;;;13.04;97.31;98281.94;5082711;28;20214;-70
2021/06/15 00:57:31;;;;;;;8.50;7.67;;;;;;;12.85;98.17;98281.31;5086363;28;20673;-71
2021/06/15 00:59:59;;;;;;;7.63;7.03;;;;;;;12.78;99.18;98274.22;5085573;28;20575;-71
2021/06/15 01:02:29;;;;;;;8.03;7.40;;;;;;;12.85;97.89;98275.19;5077918;28;20301;-71
2021/06/15 01:04:59;;;;;;;8.07;7.33;;;;;;;12.76;98.74;98273.56;5079585;28;20252;-70
2021/06/15 01:07:29;;;;;;;7.73;7.13;;;;;;;12.83;97.76;98266.56;5085069;28;20448;-71
2021/06/15 01:10:03;;;;;;;7.87;7.37;;;;;;;12.68;99.65;98267.25;5082682;28;20602;-73
2021/06/15 01:12:40;;;;;;;7.70;7.10;;;;;;;12.57;100.00;98273.78;5080672;28;20202;-72
2021/06/15 01:15:11;;;;;;;8.17;7.37;;;;;;;12.62;100.00;98270.59;5085024;28;20202;-70
2021/06/15 01:17:44;;;;;;;8.10;7.50;;;;;;;12.54;100.00;98267.97;5081278;28;20236;-71
2021/06/15 01:20:18;;;;;;;7.73;7.17;;;;;;;12.43;100.00;98270.00;5090229;28;20686;-69
2021/06/15 01:23:10;;;;;;;8.00;7.40;;;;;;;12.38;100.00;98266.16;5080567;28;20206;-71
2021/06/15 01:25:48;;;;;;;8.43;7.73;;;;;;;12.37;100.00;98262.69;5079874;28;20217;-68
2021/06/15 01:28:20;;;;;;;7.53;7.00;;;;;;;12.33;100.00;98269.34;5081384;28;20205;-71
2021/06/15 01:31:04;;;;;;;8.23;7.43;;;;;;;12.36;100.00;98263.69;5079383;28;20691;-69
2021/06/15 01:33:35;;;;;;;8.03;7.23;;;;;;;12.28;100.00;98269.00;5081557;28;20198;-71
2021/06/15 01:36:04;;;;;;;8.60;7.90;;;;;;;12.42;100.00;98262.19;5080159;28;20222;-71
2021/06/15 01:38:36;;;;;;;8.37;7.67;;;;;;;12.34;100.00;98268.34;5081958;28;20252;-71
2021/06/15 01:41:09;;;;;;;8.30;7.60;;;;;;;12.29;100.00;98263.53;5082657;28;20248;-71
2021/06/15 01:43:43;;;;;;;7.63;7.03;;;;;;;12.27;100.00;98268.19;5085969;28;20206;-72
2021/06/15 01:46:12;;;;;;;8.33;7.63;;;;;;;12.11;100.00;98258.41;5082745;28;20237;-71
2021/06/15 01:48:46;;;;;;;7.43;6.83;;;;;;;12.10;100.00;98255.91;5083409;28;20218;-71
2021/06/15 01:51:16;;;;;;;7.23;6.73;;;;;;;11.97;100.00;98262.53;5090775;28;20814;-71
2021/06/15 01:53:51;;;;;;;7.50;6.90;;;;;;;11.90;100.00;98266.84;5085755;28;20206;-72
2021/06/15 01:56:20;;;;;;;8.17;7.60;;;;;;;11.94;100.00;98260.22;5081814;28;20225;-72
2021/06/15 01:58:50;;;;;;;7.73;7.00;;;;;;;12.13;100.00;98264.38;5081603;28;20210;-70
2021/06/15 02:01:19;;;;;;;8.03;7.43;;;;;;;11.94;100.00;98260.22;5082669;28;20266;-71
2021/06/15 02:03:48;;;;;;;8.37;7.57;;;;;;;11.90;100.00;98258.88;5081328;28;20202;-73
2021/06/15 02:06:19;;;;;;;7.90;7.23;;;;;;;11.82;100.00;98257.03;5077376;28;20272;-72
2021/06/15 02:08:48;;;;;;;7.87;7.27;;;;;;;11.71;100.00;98258.19;5082839;28;20264;-72
2021/06/15 02:11:17;;;;;;;7.47;6.87;;;;;;;11.67;100.00;98250.75;5080523;28;20474;-72
2021/06/15 02:13:47;;;;;;;7.10;6.60;;;;;;;11.71;100.00;98250.22;5083368;28;20210;-71
2021/06/15 02:16:17;;;;;;;8.33;7.53;;;;;;;11.74;100.00;98251.75;5080357;28;20237;-72
2021/06/15 02:18:49;;;;;;;8.63;7.77;;;;;;;11.62;100.00;98250.41;5080890;28;20264;-70
2021/06/15 02:21:17;;;;;;;8.47;7.67;;;;;;;11.57;100.00;98245.59;5079762;28;20198;-71
2021/06/15 02:23:46;;;;;;;8.40;7.80;;;;;;;11.67;100.00;98248.09;5081946;28;20209;-72
2021/06/15 02:26:17;;;;;;;7.37;6.83;;;;;;;11.76;100.00;98246.28;5081404;28;20226;-69
2021/06/15 02:28:45;;;;;;;7.80;7.20;;;;;;;11.54;100.00;98253.88;5081300;28;20357;-71
2021/06/15 02:31:17;;;;;;;8.67;7.50;;;;;;;11.45;100.00;98247.72;5086087;28;20209;-69
2021/06/15 02:33:48;;;;;;;8.23;7.53;;;;;;;11.51;100.00;98248.91;5081067;28;20305;-71
2021/06/15 02:36:20;;;;;;;7.93;7.23;;;;;;;11.47;100.00;98252.88;5078254;28;20230;-69
2021/06/15 02:38:53;;;;;;;8.50;7.63;;;;;;;11.38;100.00;98246.72;5087120;28;20218;-71
2021/06/15 02:41:21;;;;;;;7.73;7.03;;;;;;;11.50;100.00;98250.72;5082198;28;20973;-72
2021/06/15 02:43:50;;;;;;;8.13;7.53;;;;;;;11.48;100.00;98244.72;5084604;28;20202;-71
2021/06/15 02:46:20;;;;;;;8.23;7.60;;;;;;;11.50;100.00;98249.91;5082060;28;20532;-72
2021/06/15 02:48:52;;;;;;;8.37;7.63;;;;;;;11.43;100.00;98247.91;5085601;28;20237;-71
2021/06/15 02:51:20;;;;;;;8.50;7.80;;;;;;;11.38;100.00;98259.97;5075937;28;20218;-72
2021/06/15 02:53:54;;;;;;;8.70;8.00;;;;;;;11.42;100.00;98256.84;5075121;28;20218;-72
2021/06/15 02:56:23;;;;;;;7.90;7.23;;;;;;;11.37;100.00;98258.31;5070906;28;20313;-72
2021/06/15 02:58:51;;;;;;;8.57;7.87;;;;;;;11.49;100.00;98259.66;5073243;28;20760;-72
2021/06/15 03:01:20;;;;;;;8.77;7.87;;;;;;;11.55;100.00;98261.69;5069579;28;20206;-71
2021/06/15 03:03:48;;;;;;;7.80;7.17;;;;;;;11.48;100.00;98267.81;5069824;28;20207;-71
2021/06/15 03:06:16;;;;;;;8.50;7.80;;;;;;;11.42;100.00;98263.97;5078558;28;20353;-71
2021/06/15 03:08:44;;;;;;;7.67;7.07;;;;;;;11.40;100.00;98269.47;5081761;28;20202;-69
2021/06/15 03:11:13;;;;;;;8.17;7.40;;;;;;;11.46;100.00;98267.94;5078602;28;20274;-70
2021/06/15 03:13:45;;;;;;;8.60;7.80;;;;;;;11.37;100.00;98274.25;5081926;28;21734;-71
2021/06/15 03:16:16;;;;;;;8.97;7.73;;;;;;;11.20;100.00;98265.41;5078979;28;20230;-70
2021/06/15 03:18:52;;;;;;;7.57;7.07;;;;;;;11.23;100.00;98265.09;5081132;28;20221;-68
2021/06/15 03:21:21;;;;;;;7.87;7.27;;;;;;;11.25;100.00;98276.38;5087768;28;20202;-70
2021/06/15 03:23:52;;;;;;;7.93;7.33;;;;;;;11.27;100.00;98264.59;5084352;28;20206;-71
2021/06/15 03:26:23;;;;;;;7.80;7.10;;;;;;;11.36;100.00;98272.59;5083778;28;20226;-71
2021/06/15 03:28:55;;;;;;;8.27;7.57;;;;;;;11.27;100.00;98282.34;5088581;28;20210;-71
2021/06/15 03:31:24;;;;;;;8.67;7.50;;;;;;;11.31;100.00;98273.06;5085397;28;20199;-70
2021/06/15 03:33:55;;;;;;;8.13;7.33;;;;;;;11.22;100.00;98287.28;5087447;28;20748;-71
2021/06/15 03:36:24;;;;;;;7.80;7.20;;;;;;;11.23;100.00;98291.59;5087425;28;20252;-71
2021/06/15 03:38:55;;;;;;;8.43;7.73;;;;;;;11.34;100.00;98285.19;5079047;28;20718;-72
2021/06/15 03:41:23;;;;;;;8.97;8.13;;;;;;;11.55;100.00;98288.22;5089805;28;20203;-71
2021/06/15 03:43:56;;;;;;;8.83;8.13;;;;;;;11.54;100.00;98283.06;5080192;28;20207;-71
2021/06/15 03:46:25;;;;;;;8.07;7.47;;;;;;;11.48;100.00;98276.56;5081350;28;20252;-71
2021/06/15 03:48:55;;;;;;;8.17;7.47;;;;;;;11.43;100.00;98276.25;5086708;28;20629;-70
2021/06/15 03:51:26;;;;;;;8.30;7.07;;;;;;;11.44;100.00;98273.44;5082136;28;20700;-71
2021/06/15 03:54:05;;;;;;;9.23;8.23;;;;;;;11.48;100.00;98287.19;5083238;28;20693;-71
2021/06/15 03:56:35;;;;;;;8.40;7.60;;;;;;;11.65;100.00;98287.25;5092288;28;20329;-68
2021/06/15 03:59:04;;;;;;;7.97;7.27;;;;;;;11.63;100.00;98290.06;5085267;28;20229;-69
2021/06/15 04:01:34;;;;;;;8.33;7.53;;;;;;;11.71;100.00;98289.25;5085506;28;20206;-67
2021/06/15 04:04:07;;;;;;;7.70;7.07;;;;;;;11.68;100.00;98294.88;5077347;28;20219;-68
2021/06/15 04:06:35;;;;;;;8.07;7.47;;;;;;;11.84;100.00;98294.06;5088650;28;20222;-70
2021/06/15 04:09:05;;;;;;;8.33;7.57;;;;;;;11.82;100.00;98293.41;5085666;28;20203;-69
2021/06/15 04:11:36;;;;;;;8.07;7.10;;;;;;;11.79;100.00;98296.38;5080691;28;20236;-68
2021/06/15 04:14:06;;;;;;;8.83;7.27;;;;;;;11.74;100.00;98294.22;5073984;28;20214;-68
2021/06/15 04:16:33;;;;;;;8.23;7.57;;;;;;;11.72;100.00;98291.72;5084912;28;20316;-69
2021/06/15 04:19:04;;;;;;;8.57;7.87;;;;;;;11.94;100.00;98294.72;5081244;28;20233;-69
2021/06/15 04:21:34;;;;;;;7.73;7.03;;;;;;;12.02;100.00;98293.94;5085448;28;20203;-67
2021/06/15 04:24:06;;;;;;;9.17;8.27;;;;;;;12.09;100.00;98300.25;5086389;28;20214;-69
2021/06/15 04:26:34;;;;;;;8.33;7.63;;;;;;;12.09;99.14;98302.91;5088289;28;20659;-69
2021/06/15 04:29:05;;;;;;;8.30;7.53;;;;;;;12.07;99.62;98304.06;5087536;28;20209;-68
2021/06/15 04:31:34;;;;;;;8.10;7.37;;;;;;;12.22;98.36;98305.06;5081128;28;20213;-69
2021/06/15 04:34:04;;;;;;;7.60;6.83;;;;;;;12.28;98.01;98299.06;5078425;28;20213;-69
2021/06/15 04:36:33;;;;;;;8.33;7.53;;;;;;;12.39;94.92;98305.88;5084534;28;20234;-72
2021/06/15 04:39:03;;;;;;;8.63;7.47;;;;;;;12.36;96.56;98308.88;5081494;28;20294;-73
2021/06/15 04:41:36;;;;;;;8.43;6.90;;;;;;;12.50;96.31;98309.19;5087887;28;20297;-72
2021/06/15 04:44:05;;;;;;;8.97;8.13;;;;;;;12.54;96.10;98308.69;5081523;28;20209;-71
2021/06/15 04:46:36;;;;;;;9.20;8.30;;;;;;;12.62;95.05;98312.31;5081720;28;20237;-73
2021/06/15 04:49:09;;;;;;;9.47;8.47;;;;;;;12.62;94.89;98312.31;5084925;28;20202;-72
2021/06/15 04:51:38;;;;;;;7.63;6.70;;;;;;;12.73;93.91;98315.47;5085282;28;20388;-72
2021/06/15 04:54:06;;;;;;;9.20;8.30;;;;;;;12.98;91.71;98303.91;5078110;28;20202;-71
2021/06/15 04:56:34;;;;;;;8.73;7.17;;;;;;;12.97;92.29;98308.38;5083998;28;20218;-71
2021/06/15 04:59:03;;;;;;;8.67;7.80;;;;;;;13.11;90.72;98306.03;5085983;28;20721;-71
2021/06/15 05:01:31;;;;;;;7.90;7.30;;;;;;;13.30;88.51;98308.25;5082910;28;20224;-73
2021/06/15 05:04:00;;;;;;;9.90;7.60;;;;;;;13.46;89.14;98311.88;5080035;28;20774;-71
2021/06/15 05:06:29;;;;;;;8.83;7.90;;;;;;;13.59;86.76;98320.13;5084187;28;20480;-72
2021/06/15 05:08:58;;;;;;;7.60;6.87;;;;;;;13.50;87.26;98315.00;5083305;28;20210;-72
2021/06/15 05:11:28;;;;;;;7.27;6.60;;;;;;;13.77;86.72;98307.53;5084013;28;20207;-72
2021/06/15 05:13:59;;;;;;;7.53;6.93;;;;;;;13.71;86.12;98317.91;5079340;28;20296;-71
2021/06/15 05:16:27;;;;;;;7.93;7.03;;;;;;;13.77;86.53;98320.84;5089868;28;20236;-73
2021/06/15 05:18:55;;;;;;;7.10;6.10;;;;;;;13.86;85.69;98314.47;5093898;28;20292;-72
2021/06/15 05:21:24;;;;;;;7.13;6.57;;;;;;;13.84;86.11;98319.13;5101622;28;20212;-73
2021/06/15 05:23:57;;;;;;;7.80;7.10;;;;;;;14.06;84.15;98322.00;5086102;28;20650;-72
2021/06/15 05:26:25;;;;;;;7.73;7.00;;;;;;;14.35;83.99;98320.41;5086110;28;20598;-72
2021/06/15 05:28:53;;;;;;;8.87;6.67;;;;;;;14.56;84.57;98317.03;5084087;28;20330;-72
2021/06/15 05:31:21;;;;;;;11.13;6.67;;;;;;;14.59;82.10;98322.03;5084472;28;20611;-71
2021/06/15 05:33:49;;;;;;;6.87;6.23;;;;;;;14.60;81.60;98316.50;5078239;28;20293;-71
2021/06/15 05:36:17;;;;;;;8.53;6.37;;;;;;;14.84;82.57;98319.97;5083395;28;20230;-72
2021/06/15 05:38:45;;;;;;;8.10;7.33;;;;;;;14.88;81.40;98331.09;5078826;28;20226;-71
2021/06/15 05:41:14;;;;;;;6.70;6.20;;;;;;;14.81;81.49;98324.81;5078843;28;20214;-73
2021/06/15 05:43:42;;;;;;;8.30;6.43;;;;;;;14.91;81.70;98322.72;5087288;28;20251;-70
2021/06/15 05:46:10;;;;;;;6.33;5.73;;;;;;;14.97;81.58;98321.16;5077102;28;20235;-71
2021/06/15 05:48:39;;;;;;;6.23;5.73;;;;;;;15.19;80.80;98324.72;5081926;28;20208;-72
2021/06/15 05:51:07;;;;;;;6.73;6.23;;;;;;;15.27;80.78;98326.47;5081729;28;20203;-72
2021/06/15 05:53:35;;;;;;;6.30;5.80;;;;;;;15.43;79.14;98322.78;5088026;28;20202;-72
2021/06/15 05:56:03;;;;;;;7.57;6.37;;;;;;;15.43;79.11;98322.78;5077470;28;20250;-71
2021/06/15 05:58:32;;;;;;;6.40;5.83;;;;;;;15.75;78.26;98323.34;5083612;28;20226;-73
2021/06/15 06:01:00;;;;;;;6.37;5.77;;;;;;;15.76;77.60;98327.66;5078097;28;20213;-74
2021/06/15 06:03:33;;;;;;;6.47;6.07;;;;;;;15.87;76.65;98327.16;5080885;28;20251;-72
2021/06/15 06:08:47;;;;;;;5.90;5.40;;;;;;;15.82;76.67;98326.91;5080457;28;20206;-72
2021/06/15 06:11:15;;;;;;;6.80;6.03;;;;;;;16.08;74.92;98330.88;5085089;28;20567;-71
2021/06/15 06:13:46;;;;;;;5.40;4.90;;;;;;;16.30;73.32;98336.22;5077742;28;20566;-72
2021/06/15 06:16:14;;;;;;;6.13;5.50;;;;;;;16.31;72.33;98329.84;5084927;28;20252;-71
2021/06/15 06:18:42;;;;;;;6.30;5.90;;;;;;;16.52;71.94;98334.34;5078670;28;21063;-73
2021/06/15 06:21:11;;;;;;;5.20;4.90;;;;;;;16.68;71.38;98325.19;5083692;28;20206;-73
2021/06/15 06:23:40;;;;;;;5.70;5.30;;;;;;;16.94;70.53;98329.06;5081393;28;20209;-72
2021/06/15 06:26:08;;;;;;;5.87;5.37;;;;;;;17.00;69.28;98328.31;5087695;28;20241;-72
2021/06/15 06:28:36;;;;;;;5.30;4.80;;;;;;;17.15;68.55;98324.66;5086101;28;20202;-71
2021/06/15 06:31:05;;;;;;;6.10;5.60;;;;;;;17.48;67.37;98330.19;5088436;28;20524;-71
2021/06/15 06:33:34;;;;;;;5.70;5.30;;;;;;;17.54;67.39;98333.88;5084951;28;20206;-72
2021/06/15 06:36:02;;;;;;;5.00;4.70;;;;;;;17.76;66.04;98331.09;5087965;28;20269;-71
2021/06/15 06:38:30;;;;;;;7.70;5.03;;;;;;;17.87;65.98;98330.47;5085521;28;20230;-71
2021/06/15 06:40:58;;;;;;;8.70;5.10;;;;;;;17.93;65.33;98335.03;5084349;28;20225;-71
2021/06/15 06:43:26;;;;;;;5.17;4.67;;;;;;;18.04;65.64;98328.28;5087229;28;20210;-72
2021/06/15 06:45:54;;;;;;;4.87;4.07;;;;;;;18.35;63.71;98324.19;5085495;28;20215;-71
2021/06/15 06:48:23;;;;;;;6.40;5.03;;;;;;;18.50;60.22;98332.03;5082409;28;20206;-72
2021/06/15 06:50:52;;;;;;;5.77;4.97;;;;;;;18.70;59.34;98338.41;5085285;28;20611;-72
2021/06/15 06:53:20;;;;;;;7.10;4.80;;;;;;;18.65;60.05;98334.50;5083548;28;20302;-71
2021/06/15 06:55:47;;;;;;;5.27;4.37;;;;;;;18.70;58.91;98331.16;5084302;28;20206;-71
2021/06/15 06:58:15;;;;;;;5.33;4.93;;;;;;;19.20;57.77;98332.53;5081558;28;20202;-72
2021/06/15 07:00:43;;;;;;;5.37;4.63;;;;;;;19.13;56.95;98332.56;5085311;28;20226;-71
2021/06/15 07:03:12;;;;;;;8.00;5.00;;;;;;;19.08;56.78;98327.00;5087695;28;20226;-71
2021/06/15 07:05:41;;;;;;;6.40;5.37;;;;;;;19.26;56.69;98331.69;5080401;28;20236;-71
2021/06/15 07:08:09;;;;;;;5.73;4.63;;;;;;;19.49;57.26;98323.13;5083714;28;20202;-71
2021/06/15 07:10:37;;;;;;;5.23;4.70;;;;;;;19.58;54.81;98330.94;5080722;28;20202;-72
2021/06/15 07:13:05;;;;;;;7.50;4.87;;;;;;;19.74;55.21;98325.06;5082132;28;20211;-71
2021/06/15 07:15:33;;;;;;;9.03;4.30;;;;;;;19.90;54.31;98326.47;5085720;28;20213;-71
2021/06/15 07:18:01;;;;;;;6.20;4.33;;;;;;;20.15;52.51;98330.22;5082235;28;20601;-72
2021/06/15 07:20:29;;;;;;;5.97;4.20;;;;;;;20.22;52.47;98320.25;5085036;28;20218;-69
2021/06/15 07:22:58;;;;;;;7.33;5.27;;;;;;;20.35;52.12;98324.69;5082744;28;20207;-72
2021/06/15 07:25:27;;;;;;;4.83;4.33;;;;;;;20.53;50.18;98324.72;5082495;28;20198;-71
2021/06/15 07:27:55;;;;;;;5.30;4.60;;;;;;;20.59;49.69;98320.34;5082457;28;20222;-71
2021/06/15 07:30:23;;;;;;;8.13;4.50;;;;;;;20.50;49.69;98319.78;5086180;28;20206;-71
2021/06/15 07:32:56;;;;;;;5.00;4.47;;;;;;;20.63;49.45;98324.25;5086568;28;20213;-70
2021/06/15 07:35:24;;;;;;;4.50;4.10;;;;;;;20.71;49.17;98328.53;5088418;28;20199;-70
2021/06/15 07:37:52;;;;;;;8.70;4.70;;;;;;;20.72;48.75;98330.16;5089936;28;20222;-72
2021/06/15 07:40:24;;;;;;;7.30;4.27;;;;;;;21.21;48.21;98324.94;5085178;28;20237;-71
2021/06/15 07:42:52;;;;;;;8.50;4.20;;;;;;;21.23;46.37;98324.69;5085067;28;20209;-70
2021/06/15 07:45:20;;;;;;;8.10;4.97;;;;;;;21.35;47.54;98332.84;5088875;28;20220;-72
2021/06/15 07:47:48;;;;;;;4.87;4.47;;;;;;;21.41;45.82;98323.84;5084516;28;20230;-72
2021/06/15 07:50:17;;;;;;;5.93;3.70;;;;;;;21.67;44.19;98332.69;5084666;28;20233;-72
2021/06/15 07:52:46;;;;;;;5.97;4.60;;;;;;;21.81;43.73;98325.25;5084171;28;20208;-71
2021/06/15 07:55:15;;;;;;;5.30;4.00;;;;;;;21.92;45.05;98321.75;5088545;28;20287;-71
2021/06/15 07:57:45;;;;;;;8.03;3.90;;;;;;;21.97;44.84;98318.34;5085084;28;20218;-72
2021/06/15 08:00:14;;;;;;;5.87;4.20;;;;;;;22.13;43.42;98316.84;5084202;28;20230;-72
2021/06/15 08:02:43;;;;;;;7.03;3.70;;;;;;;22.16;43.17;98313.72;5084884;28;20241;-71
2021/06/15 08:05:12;;;;;;;6.87;3.90;;;;;;;22.49;40.83;98314.25;5083646;28;20420;-72
2021/06/15 08:07:40;;;;;;;3.93;3.63;;;;;;;22.61;38.81;98311.56;5084291;28;20228;-71
2021/06/15 08:10:10;;;;;;;3.93;3.53;;;;;;;22.38;38.69;98308.59;5085730;28;20670;-71
2021/06/15 08:12:38;;;;;;;5.57;3.33;;;;;;;22.32;39.57;98306.78;5086334;28;20213;-72
2021/06/15 08:15:08;;;;;;;8.60;3.37;;;;;;;22.58;39.68;98302.03;5087545;28;20435;-72
2021/06/15 08:17:36;;;;;;;4.47;3.37;;;;;;;22.71;39.03;98309.09;5087121;28;20603;-74
2021/06/15 08:20:06;;;;;;;4.30;3.93;;;;;;;22.79;39.50;98308.72;5084574;28;20225;-71
2021/06/15 08:22:34;;;;;;;3.23;3.03;;;;;;;22.93;40.11;98300.38;5081123;28;20518;-70
2021/06/15 08:25:02;;;;;;;8.90;3.50;;;;;;;23.03;38.94;98307.88;5084286;28;20202;-71
2021/06/15 08:27:31;;;;;;;5.90;3.70;;;;;;;23.21;38.49;98306.88;5086481;28;20233;-71
2021/06/15 08:29:59;;;;;;;5.83;3.87;;;;;;;23.10;39.59;98293.16;5084871;28;20207;-73
2021/06/15 08:32:28;;;;;;;4.50;3.53;;;;;;;23.29;37.68;98309.25;5088631;28;20248;-71
2021/06/15 08:34:56;;;;;;;4.80;3.40;;;;;;;23.11;39.03;98305.63;5083396;28;20209;-71
2021/06/15 08:37:24;;;;;;;3.80;3.40;;;;;;;23.31;38.14;98299.03;5082923;28;20230;-71
2021/06/15 08:39:52;;;;;;;5.37;3.73;;;;;;;23.10;39.02;98297.75;5084304;28;20213;-72
2021/06/15 08:42:20;;;;;;;5.43;3.30;;;;;;;23.60;37.74;98295.53;5084189;28;20222;-70
2021/06/15 08:44:48;;;;;;;3.13;2.90;;;;;;;23.62;37.57;98305.03;5084519;28;20225;-71
2021/06/15 08:47:16;;;;;;;3.93;3.00;;;;;;;23.68;36.46;98301.38;5084041;28;20222;-74
2021/06/15 08:49:46;;;;;;;4.83;3.07;;;;;;;23.82;35.79;98307.28;5083739;28;20245;-72
2021/06/15 08:52:15;;;;;;;5.27;3.10;;;;;;;23.62;38.05;98302.31;5100361;28;20203;-71
2021/06/15 08:54:45;;;;;;;7.13;3.40;;;;;;;24.05;36.67;98300.13;5103166;28;20221;-73
2021/06/15 08:57:18;;;;;;;4.57;3.10;;;;;;;23.87;36.73;98298.44;5085499;28;20229;-72
2021/06/15 08:59:46;;;;;;;4.63;3.57;;;;;;;24.31;35.09;98291.59;5083104;28;20210;-70
2021/06/15 09:02:14;;;;;;;4.27;3.57;;;;;;;24.29;36.20;98286.47;5081788;28;20356;-71
2021/06/15 09:04:43;;;;;;;6.37;3.00;;;;;;;24.45;36.09;98289.38;5082881;28;20202;-72
2021/06/15 09:07:13;;;;;;;7.50;3.77;;;;;;;24.66;34.69;98291.34;5083955;28;20749;-71
2021/06/15 09:09:42;;;;;;;7.90;3.27;;;;;;;24.55;35.45;98293.09;5082043;28;20667;-71
2021/06/15 09:12:11;;;;;;;4.90;3.33;;;;;;;24.52;34.79;98288.16;5078797;28;20203;-71
2021/06/15 09:14:44;;;;;;;5.87;3.20;;;;;;;24.91;35.84;98290.06;5081663;28;20234;-70
2021/06/15 09:17:14;;;;;;;6.37;4.17;;;;;;;24.89;34.32;98294.13;5082911;28;20224;-73
2021/06/15 09:19:42;;;;;;;4.37;3.97;;;;;;;24.85;34.75;98297.34;5083976;28;20208;-71
2021/06/15 09:22:26;;;;;;;6.97;3.70;;;;;;;24.76;36.78;98287.97;5083925;28;20228;-71
2021/06/15 09:24:55;;;;;;;5.77;3.60;;;;;;;25.41;33.57;98293.66;5081501;28;20206;-71
2021/06/15 09:27:28;;;;;;;3.77;3.47;;;;;;;25.17;35.69;98284.16;5083467;28;20235;-69
2021/06/15 09:29:57;;;;;;;5.97;3.00;;;;;;;25.42;33.98;98298.03;5079606;28;20207;-72
2021/06/15 09:32:27;;;;;;;4.37;3.47;;;;;;;25.60;35.73;98292.53;5081542;28;20210;-72
2021/06/15 09:35:00;;;;;;;7.10;3.20;;;;;;;25.83;34.47;98285.97;5087381;28;20484;-71
2021/06/15 09:37:35;;;;;;;4.30;3.57;;;;;;;26.00;34.67;98278.56;5082233;28;20237;-72
2021/06/15 09:40:10;;;;;;;4.20;3.80;;;;;;;26.08;33.15;98282.66;5082276;28;20226;-71
2021/06/15 09:42:56;;;;;;;5.33;3.67;;;;;;;25.73;33.50;98292.13;5083630;28;20222;-71
2021/06/15 09:45:25;;;;;;;5.20;4.03;;;;;;;25.92;32.52;98287.16;5082935;28;20485;-72
2021/06/15 09:47:54;;;;;;;3.40;3.10;;;;;;;25.68;34.85;98290.19;5082798;28;20239;-72
2021/06/15 09:50:24;;;;;;;6.60;3.90;;;;;;;25.90;33.92;98286.59;5078986;28;20766;-71
2021/06/15 09:52:53;;;;;;;3.97;3.67;;;;;;;26.10;32.94;98283.22;5082568;28;20625;-72
2021/06/15 09:55:23;;;;;;;5.73;3.93;;;;;;;26.07;33.29;98280.22;5083085;28;20213;-72
2021/06/15 09:57:52;;;;;;;5.77;4.50;;;;;;;26.14;32.79;98291.69;5083780;28;20222;-72
2021/06/15 10:00:20;;;;;;;4.13;3.60;;;;;;;26.12;33.31;98293.84;5084923;28;20204;-72
2021/06/15 10:02:51;;;;;;;7.67;4.00;;;;;;;25.97;33.57;98283.66;5085285;28;20725;-71
2021/06/15 10:05:22;;;;;;;4.50;3.90;;;;;;;26.13;32.83;98285.44;5078600;28;20220;-72
2021/06/15 10:07:50;;;;;;;5.57;4.17;;;;;;;26.18;32.02;98283.88;5080994;28;20220;-71
2021/06/15 10:10:20;;;;;;;6.87;4.70;;;;;;;26.00;32.62;98272.28;5083192;28;20216;-69
2021/06/15 10:12:49;;;;;;;5.50;3.50;;;;;;;26.36;33.54;98274.50;5081305;28;20204;-71
2021/06/15 10:15:17;;;;;;;5.70;4.27;;;;;;;26.09;34.51;98268.00;5084942;28;20229;-71
2021/06/15 10:17:46;;;;;;;4.73;3.63;;;;;;;26.20;33.73;98268.16;5082369;28;20248;-73
2021/06/15 10:20:17;;;;;;;4.97;3.67;;;;;;;26.84;30.50;98266.38;5082620;28;20297;-71
2021/06/15 10:22:45;;;;;;;4.13;3.73;;;;;;;26.69;31.66;98261.66;5083498;28;20230;-70
2021/06/15 10:25:14;;;;;;;5.93;3.50;;;;;;;26.58;31.45;98261.59;5081102;28;20453;-72
2021/06/15 10:27:44;;;;;;;4.60;3.63;;;;;;;26.68;31.40;98255.41;5079588;28;20213;-69
2021/06/15 10:30:14;;;;;;;4.40;3.97;;;;;;;26.69;30.70;98254.34;5079462;28;20208;-72
2021/06/15 10:32:53;;;;;;;4.20;3.83;;;;;;;26.40;32.53;98259.31;5083789;28;20205;-72
2021/06/15 10:35:34;;;;;;;6.03;4.10;;;;;;;26.30;34.67;98247.28;5088369;28;20200;-72
2021/06/15 10:38:02;;;;;;;4.90;3.87;;;;;;;26.42;34.13;98257.16;5084124;28;20228;-71
2021/06/15 10:40:41;;;;;;;4.00;3.60;;;;;;;26.75;33.34;98252.47;5082861;28;20213;-71
2021/06/15 10:43:29;;;;;;;9.50;3.30;;;;;;;26.59;32.49;98260.53;5078898;28;20229;-70
2021/06/15 10:46:05;;;;;;;5.23;3.60;;;;;;;26.72;32.51;98247.56;5089588;28;20773;-73
2021/06/15 10:48:43;;;;;;;3.43;3.13;;;;;;;26.62;32.16;98250.19;5086630;28;20288;-71
2021/06/15 10:51:37;;;;;;;6.90;3.90;;;;;;;27.15;30.72;98251.03;5092124;28;20742;-71
2021/06/15 10:54:30;;;;;;;3.70;3.40;;;;;;;27.62;30.35;98245.75;5086123;28;20678;-72
2021/06/15 10:57:24;;;;;;;5.87;3.47;;;;;;;27.83;30.60;98245.75;5086721;28;20222;-72
2021/06/15 11:00:09;;;;;;;4.53;3.60;;;;;;;27.67;30.62;98234.84;5081631;28;20579;-70
2021/06/15 11:02:38;;;;;;;4.43;3.10;;;;;;;27.77;30.62;98230.50;5089931;28;20225;-70
2021/06/15 11:05:37;;;;;;;4.97;3.57;;;;;;;28.52;29.44;98235.38;5088867;28;20489;-71
2021/06/15 11:08:17;;;;;;;5.47;3.40;;;;;;;28.70;31.18;98231.22;5083175;28;20305;-69
2021/06/15 11:10:47;;;;;;;3.03;2.83;;;;;;;28.73;29.80;98243.50;5082186;28;20212;-71
2021/06/15 11:13:16;;;;;;;4.30;3.03;;;;;;;29.01;29.95;98238.53;5084777;28;20483;-71
2021/06/15 11:16:02;;;;;;;5.70;3.20;;;;;;;28.95;29.81;98239.63;5087803;28;20466;-71
2021/06/15 11:18:30;;;;;;;5.03;3.30;;;;;;;28.97;29.16;98240.16;5084064;28;20555;-71
2021/06/15 11:20:58;;;;;;;3.60;3.30;;;;;;;28.73;30.20;98241.56;5094378;28;20201;-72
2021/06/15 11:23:29;;;;;;;4.17;3.60;;;;;;;28.64;29.56;98237.78;5080451;28;20734;-72
2021/06/15 11:26:01;;;;;;;6.13;3.50;;;;;;;28.97;29.90;98249.16;5084634;28;20203;-71
2021/06/15 11:29:01;;;;;;;4.23;3.10;;;;;;;28.95;27.46;98245.06;5084452;28;20208;-71
2021/06/15 11:31:35;;;;;;;6.47;3.37;;;;;;;28.98;27.64;98239.88;5083735;28;20198;-72
2021/06/15 11:34:21;;;;;;;3.43;3.13;;;;;;;28.35;28.79;98227.50;5086008;28;20209;-70
2021/06/15 11:36:56;;;;;;;4.47;3.57;;;;;;;28.92;28.05;98240.19;5081387;28;20534;-70
2021/06/15 11:39:36;;;;;;;4.30;3.10;;;;;;;27.97;29.43;98237.84;5084604;28;20206;-70
2021/06/15 11:42:22;;;;;;;5.37;3.13;;;;;;;27.99;29.21;98230.22;5081724;28;20230;-70
2021/06/15 11:44:59;;;;;;;3.27;2.97;;;;;;;27.89;29.19;98228.34;5085314;28;20203;-70
2021/06/15 11:47:35;;;;;;;4.27;3.17;;;;;;;28.09;28.00;98232.97;5087633;28;20218;-71
2021/06/15 11:50:27;;;;;;;3.13;2.83;;;;;;;28.07;29.14;98231.59;5080945;28;20297;-71